createdAt,value
2017-09-03T00:00:12.463Z,15.49
2017-09-03T00:00:53.032Z,15.36
2017-09-03T00:01:33.600Z,15.33
2017-09-03T00:02:14.185Z,15.42
2017-09-03T00:02:54.761Z,15.31
2017-09-03T00:03:35.340Z,15.37
2017-09-03T00:04:15.925Z,15.29
2017-09-03T00:04:56.504Z,15.39
2017-09-03T00:05:37.097Z,15.28
2017-09-03T00:06:17.669Z,15.36
2017-09-03T00:06:58.254Z,15.27
2017-09-03T00:07:38.844Z,15.28
2017-09-03T00:08:19.412Z,15.29
2017-09-03T00:08:59.979Z,15.29
2017-09-03T00:09:40.561Z,15.33
2017-09-03T00:10:21.125Z,15.29
2017-09-03T00:11:01.712Z,15.29
2017-09-03T00:11:42.295Z,15.31
2017-09-03T00:12:22.880Z,15.19
2017-09-03T00:13:03.469Z,15.28
2017-09-03T00:13:44.053Z,15.24
2017-09-03T00:14:24.633Z,15.22
2017-09-03T00:15:05.234Z,15.31
2017-09-03T00:15:45.830Z,15.24
2017-09-03T00:16:26.405Z,15.21
2017-09-03T00:17:06.983Z,15.25
2017-09-03T00:17:47.572Z,15.25
2017-09-03T00:18:28.178Z,15.29
2017-09-03T00:19:08.751Z,15.21
2017-09-03T00:19:49.332Z,15.27
2017-09-03T00:20:29.921Z,15.18
2017-09-03T00:21:10.545Z,15.24
2017-09-03T00:21:51.141Z,15.18
2017-09-03T00:22:31.710Z,15.18
2017-09-03T00:23:12.294Z,15.17
2017-09-03T00:23:52.866Z,15.22
2017-09-03T00:24:33.453Z,15.18
2017-09-03T00:25:14.042Z,15.15
2017-09-03T00:25:54.650Z,15.19
2017-09-03T00:26:35.227Z,15.11
2017-09-03T00:27:15.796Z,15.1
2017-09-03T00:27:56.399Z,15.1
2017-09-03T00:28:43.941Z,15.07
2017-09-03T00:29:24.506Z,15.09
2017-09-03T00:30:05.079Z,15.09
2017-09-03T00:30:45.672Z,15.11
2017-09-03T00:31:26.242Z,15.1
2017-09-03T00:32:06.834Z,15.14
2017-09-03T00:32:47.395Z,15.1
2017-09-03T00:33:27.975Z,15.1
2017-09-03T00:34:08.550Z,15.11
2017-09-03T00:34:49.121Z,15.09
2017-09-03T00:35:29.711Z,15.09
2017-09-03T00:36:10.285Z,15.09
2017-09-03T00:36:50.864Z,15.14
2017-09-03T00:37:31.458Z,15.09
2017-09-03T00:38:12.027Z,15.04
2017-09-03T00:38:52.609Z,15.11
2017-09-03T00:39:33.208Z,15.11
2017-09-03T00:40:13.779Z,14.99
2017-09-03T00:40:54.342Z,14.99
2017-09-03T00:41:34.921Z,14.97
2017-09-03T00:42:15.481Z,14.97
2017-09-03T00:42:56.045Z,14.99
2017-09-03T00:43:36.608Z,15.04
2017-09-03T00:44:17.225Z,14.91
2017-09-03T00:44:57.793Z,14.91
2017-09-03T00:45:38.406Z,14.99
2017-09-03T00:46:18.976Z,14.94
2017-09-03T00:46:59.530Z,14.99
2017-09-03T00:47:40.102Z,14.94
2017-09-03T00:48:20.663Z,14.99
2017-09-03T00:49:01.225Z,14.94
2017-09-03T00:49:41.798Z,14.96
2017-09-03T00:50:22.383Z,14.94
2017-09-03T00:51:02.947Z,14.94
2017-09-03T00:51:43.531Z,15
2017-09-03T00:52:24.118Z,14.94
2017-09-03T00:53:04.691Z,14.86
2017-09-03T00:53:45.253Z,14.89
2017-09-03T00:54:25.809Z,14.94
2017-09-03T00:55:06.388Z,14.92
2017-09-03T00:55:46.958Z,14.92
2017-09-03T00:56:27.524Z,14.89
2017-09-03T00:57:08.090Z,14.94
2017-09-03T00:57:48.654Z,14.88
2017-09-03T00:58:29.222Z,14.86
2017-09-03T00:59:09.776Z,14.88
2017-09-03T00:59:50.347Z,14.82
2017-09-03T01:00:30.912Z,14.86
2017-09-03T01:01:11.491Z,14.86
2017-09-03T01:01:52.051Z,14.84
2017-09-03T01:02:32.625Z,14.81
2017-09-03T01:03:13.214Z,14.82
2017-09-03T01:03:53.796Z,14.79
2017-09-03T01:04:34.354Z,14.84
2017-09-03T01:05:14.930Z,14.85
2017-09-03T01:05:55.492Z,14.84
2017-09-03T01:06:36.060Z,14.77
2017-09-03T01:07:16.642Z,14.86
2017-09-03T01:07:57.216Z,14.85
2017-09-03T01:08:37.786Z,14.78
2017-09-03T01:09:18.358Z,14.7
2017-09-03T01:09:58.947Z,14.82
2017-09-03T01:10:39.514Z,14.79
2017-09-03T01:11:20.111Z,14.72
2017-09-03T01:12:00.677Z,14.81
2017-09-03T01:12:41.236Z,14.85
2017-09-03T01:13:21.828Z,14.78
2017-09-03T01:14:02.390Z,14.69
2017-09-03T01:14:42.954Z,14.72
2017-09-03T01:15:23.566Z,14.68
2017-09-03T01:16:04.143Z,14.62
2017-09-03T01:16:44.740Z,14.69
2017-09-03T01:17:25.323Z,14.72
2017-09-03T01:18:05.900Z,14.7
2017-09-03T01:18:46.511Z,14.68
2017-09-03T01:19:27.114Z,14.65
2017-09-03T01:20:07.663Z,14.69
2017-09-03T01:20:48.237Z,14.68
2017-09-03T01:21:28.816Z,14.68
2017-09-03T01:22:09.391Z,14.69
2017-09-03T01:22:49.963Z,14.79
2017-09-03T01:23:30.538Z,14.78
2017-09-03T01:24:11.117Z,14.82
2017-09-03T01:24:51.697Z,14.84
2017-09-03T01:25:32.259Z,14.81
2017-09-03T01:26:12.857Z,14.81
2017-09-03T01:26:53.446Z,14.68
2017-09-03T01:27:34.016Z,14.78
2017-09-03T01:28:14.591Z,14.82
2017-09-03T01:28:55.213Z,14.69
2017-09-03T01:29:35.792Z,14.79
2017-09-03T01:30:16.402Z,14.81
2017-09-03T01:30:56.991Z,14.81
2017-09-03T01:31:37.580Z,14.82
2017-09-03T01:32:18.163Z,14.73
2017-09-03T01:32:58.721Z,14.81
2017-09-03T01:33:39.335Z,14.73
2017-09-03T01:34:19.924Z,14.68
2017-09-03T01:35:00.526Z,14.79
2017-09-03T01:35:41.098Z,14.81
2017-09-03T01:36:21.688Z,14.72
2017-09-03T01:37:02.254Z,14.81
2017-09-03T01:37:42.867Z,14.68
2017-09-03T01:38:23.436Z,14.73
2017-09-03T01:39:04.052Z,14.81
2017-09-03T01:39:44.640Z,14.82
2017-09-03T01:40:25.220Z,14.81
2017-09-03T01:41:05.802Z,14.81
2017-09-03T01:41:46.396Z,14.82
2017-09-03T01:42:27.040Z,14.78
2017-09-03T01:43:07.640Z,14.81
2017-09-03T01:43:48.238Z,14.68
2017-09-03T01:44:28.806Z,14.7
2017-09-03T01:45:09.435Z,14.79
2017-09-03T01:45:50.004Z,14.68
2017-09-03T01:46:30.587Z,14.69
2017-09-03T01:47:11.155Z,14.65
2017-09-03T01:47:51.739Z,14.72
2017-09-03T01:48:32.328Z,14.69
2017-09-03T01:49:12.908Z,14.66
2017-09-03T01:49:53.481Z,14.72
2017-09-03T01:50:34.073Z,14.69
2017-09-03T01:51:14.642Z,14.7
2017-09-03T01:51:55.222Z,14.68
2017-09-03T01:52:35.792Z,14.65
2017-09-03T01:53:16.370Z,14.72
2017-09-03T01:53:56.964Z,14.69
2017-09-03T01:54:37.602Z,14.69
2017-09-03T01:55:18.168Z,14.73
2017-09-03T01:55:58.731Z,14.7
2017-09-03T01:56:39.298Z,14.66
2017-09-03T01:57:19.891Z,14.66
2017-09-03T01:58:00.449Z,14.65
2017-09-03T01:58:41.038Z,14.68
2017-09-03T01:59:21.603Z,14.72
2017-09-03T02:00:02.208Z,14.7
2017-09-03T02:00:42.836Z,14.7
2017-09-03T02:01:23.407Z,14.68
2017-09-03T02:02:03.977Z,14.68
2017-09-03T02:02:44.547Z,14.66
2017-09-03T02:03:25.111Z,14.68
2017-09-03T02:04:05.665Z,14.69
2017-09-03T02:04:46.260Z,14.63
2017-09-03T02:05:26.862Z,14.54
2017-09-03T02:06:07.464Z,14.59
2017-09-03T02:06:48.101Z,14.65
2017-09-03T02:07:28.659Z,14.69
2017-09-03T02:08:09.266Z,14.65
2017-09-03T02:08:49.829Z,14.59
2017-09-03T02:09:30.417Z,14.69
2017-09-03T02:10:10.979Z,14.69
2017-09-03T02:10:51.557Z,14.68
2017-09-03T02:11:32.127Z,14.69
2017-09-03T02:12:12.697Z,14.69
2017-09-03T02:12:53.316Z,14.63
2017-09-03T02:13:33.892Z,14.72
2017-09-03T02:14:14.484Z,14.68
2017-09-03T02:14:55.060Z,14.65
2017-09-03T02:15:35.634Z,14.72
2017-09-03T02:16:16.228Z,14.65
2017-09-03T02:16:56.834Z,14.68
2017-09-03T02:17:37.400Z,14.65
2017-09-03T02:18:17.991Z,14.66
2017-09-03T02:18:58.574Z,14.69
2017-09-03T02:19:39.156Z,14.66
2017-09-03T02:20:19.761Z,14.63
2017-09-03T02:21:00.325Z,14.6
2017-09-03T02:21:40.917Z,14.62
2017-09-03T02:22:21.482Z,14.51
2017-09-03T02:23:02.057Z,14.6
2017-09-03T02:23:42.652Z,14.51
2017-09-03T02:24:23.237Z,14.53
2017-09-03T02:25:03.836Z,14.53
2017-09-03T02:25:44.510Z,14.51
2017-09-03T02:26:25.079Z,14.6
2017-09-03T02:27:05.655Z,14.51
2017-09-03T02:27:46.277Z,14.53
2017-09-03T02:28:26.870Z,14.55
2017-09-03T02:29:07.436Z,14.47
2017-09-03T02:29:48.014Z,14.59
2017-09-03T02:30:28.600Z,14.53
2017-09-03T02:31:09.178Z,14.48
2017-09-03T02:31:49.772Z,14.53
2017-09-03T02:32:30.345Z,14.58
2017-09-03T02:33:10.921Z,14.47
2017-09-03T02:33:51.496Z,14.63
2017-09-03T02:34:32.093Z,14.55
2017-09-03T02:35:12.667Z,14.59
2017-09-03T02:35:53.237Z,14.53
2017-09-03T02:36:33.814Z,14.54
2017-09-03T02:37:14.376Z,14.58
2017-09-03T02:37:54.951Z,14.54
2017-09-03T02:38:35.513Z,14.51
2017-09-03T02:39:16.086Z,14.54
2017-09-03T02:39:56.657Z,14.55
2017-09-03T02:40:37.236Z,14.5
2017-09-03T02:41:17.800Z,14.53
2017-09-03T02:41:58.400Z,14.53
2017-09-03T02:42:38.964Z,14.5
2017-09-03T02:43:19.543Z,14.53
2017-09-03T02:44:00.108Z,14.53
2017-09-03T02:44:40.698Z,14.48
2017-09-03T02:45:21.268Z,14.53
2017-09-03T02:46:01.850Z,14.58
2017-09-03T02:46:42.417Z,14.48
2017-09-03T02:47:23.023Z,14.48
2017-09-03T02:48:03.593Z,14.47
2017-09-03T02:48:44.187Z,14.35
2017-09-03T02:49:24.776Z,14.43
2017-09-03T02:50:05.340Z,14.37
2017-09-03T02:50:45.908Z,14.37
2017-09-03T02:51:26.497Z,14.36
2017-09-03T02:52:07.065Z,14.41
2017-09-03T02:52:47.634Z,14.41
2017-09-03T02:53:28.223Z,14.44
2017-09-03T02:54:08.831Z,14.33
2017-09-03T02:54:49.405Z,14.35
2017-09-03T02:55:29.989Z,14.32
2017-09-03T02:56:10.562Z,14.33
2017-09-03T02:56:51.146Z,14.36
2017-09-03T02:57:31.743Z,14.35
2017-09-03T02:58:12.308Z,14.35
2017-09-03T02:58:52.880Z,14.36
2017-09-03T02:59:33.445Z,14.23
2017-09-03T03:00:14.037Z,14.35
2017-09-03T03:00:54.607Z,14.26
2017-09-03T03:01:35.247Z,14.32
2017-09-03T03:02:15.825Z,14.28
2017-09-03T03:02:56.415Z,14.25
2017-09-03T03:03:37.023Z,14.26
2017-09-03T03:04:17.582Z,14.25
2017-09-03T03:04:58.149Z,14.28
2017-09-03T03:05:38.729Z,14.25
2017-09-03T03:06:19.297Z,14.3
2017-09-03T03:06:59.870Z,14.23
2017-09-03T03:07:40.442Z,14.3
2017-09-03T03:08:21.008Z,14.26
2017-09-03T03:09:01.593Z,14.26
2017-09-03T03:09:42.180Z,14.23
2017-09-03T03:10:22.761Z,14.23
2017-09-03T03:11:03.334Z,14.28
2017-09-03T03:11:43.904Z,14.25
2017-09-03T03:12:24.487Z,14.29
2017-09-03T03:13:05.065Z,14.18
2017-09-03T03:13:45.631Z,14.26
2017-09-03T03:14:26.195Z,14.25
2017-09-03T03:15:06.781Z,14.17
2017-09-03T03:15:47.338Z,14.22
2017-09-03T03:16:27.912Z,14.12
2017-09-03T03:17:08.471Z,14.15
2017-09-03T03:17:49.053Z,14.11
2017-09-03T03:18:29.605Z,14.18
2017-09-03T03:19:10.178Z,14.17
2017-09-03T03:19:50.785Z,14.11
2017-09-03T03:20:31.377Z,14.12
2017-09-03T03:21:11.973Z,14.15
2017-09-03T03:21:52.575Z,14.17
2017-09-03T03:22:33.160Z,14.14
2017-09-03T03:23:13.733Z,14.17
2017-09-03T03:23:54.323Z,14.14
2017-09-03T03:24:34.910Z,14.12
2017-09-03T03:25:15.510Z,14.08
2017-09-03T03:25:56.084Z,14.08
2017-09-03T03:26:36.664Z,14.1
2017-09-03T03:27:17.227Z,14.11
2017-09-03T03:27:57.796Z,14.1
2017-09-03T03:28:38.374Z,14.14
2017-09-03T03:29:18.954Z,14.11
2017-09-03T03:29:59.527Z,14.14
2017-09-03T03:30:40.098Z,14.12
2017-09-03T03:31:20.663Z,14.05
2017-09-03T03:32:01.231Z,14.08
2017-09-03T03:32:41.807Z,14.07
2017-09-03T03:33:22.395Z,14.11
2017-09-03T03:34:02.973Z,14.1
2017-09-03T03:34:43.529Z,14.04
2017-09-03T03:35:24.098Z,14.04
2017-09-03T03:36:04.705Z,14.1
2017-09-03T03:36:45.280Z,14.04
2017-09-03T03:37:25.851Z,14.11
2017-09-03T03:38:06.414Z,14.08
2017-09-03T03:38:47.010Z,14.15
2017-09-03T03:39:27.586Z,14.14
2017-09-03T03:40:08.177Z,14.1
2017-09-03T03:40:48.784Z,14.03
2017-09-03T03:41:29.372Z,14.05
2017-09-03T03:42:09.973Z,14.04
2017-09-03T03:42:50.547Z,14.05
2017-09-03T03:43:31.138Z,14.05
2017-09-03T03:44:11.721Z,14.07
2017-09-03T03:44:52.295Z,14.05
2017-09-03T03:45:32.839Z,14.07
2017-09-03T03:46:13.444Z,14.03
2017-09-03T03:46:54.023Z,14.08
2017-09-03T03:47:34.605Z,14.07
2017-09-03T03:48:15.210Z,14.04
2017-09-03T03:48:55.816Z,14.08
2017-09-03T03:49:36.382Z,14.11
2017-09-03T03:50:16.950Z,14.07
2017-09-03T03:50:57.531Z,13.99
2017-09-03T03:51:38.102Z,13.99
2017-09-03T03:52:18.695Z,13.95
2017-09-03T03:52:59.273Z,13.92
2017-09-03T03:53:39.843Z,13.92
2017-09-03T03:54:20.468Z,13.92
2017-09-03T03:55:01.061Z,13.89
2017-09-03T03:55:41.628Z,13.9
2017-09-03T03:56:22.193Z,13.92
2017-09-03T03:57:02.818Z,13.85
2017-09-03T03:57:43.378Z,13.92
2017-09-03T03:58:23.954Z,13.92
2017-09-03T03:59:04.519Z,13.95
2017-09-03T03:59:45.101Z,13.95
2017-09-03T04:00:25.683Z,13.95
2017-09-03T04:01:06.283Z,13.87
2017-09-03T04:01:46.856Z,13.92
2017-09-03T04:02:27.421Z,13.9
2017-09-03T04:03:07.999Z,13.86
2017-09-03T04:03:48.572Z,13.89
2017-09-03T04:04:29.147Z,13.93
2017-09-03T04:05:09.738Z,13.87
2017-09-03T04:05:50.328Z,13.95
2017-09-03T04:06:30.953Z,13.87
